createdAt,value
2023-04-15T20:15:52.930Z,100425.22
2023-04-15T20:17:00.319Z,100435.59
2023-04-15T20:18:06.841Z,100428.47
2023-04-15T20:19:14.491Z,100427.09
2023-04-15T20:20:20.937Z,100420.81
2023-04-15T20:21:27.374Z,100422.97
2023-04-15T20:22:33.438Z,100423.78
2023-04-15T20:23:39.889Z,100421.06
2023-04-15T20:24:45.515Z,100417.25
2023-04-15T20:25:51.923Z,100416.16
2023-04-15T20:26:58.990Z,100419.72
2023-04-15T20:28:04.564Z,100416.44
2023-04-15T20:29:10.959Z,100421.06
2023-04-15T20:30:16.077Z,100408.44
2023-04-15T20:31:24.978Z,100412.28
2023-04-15T20:32:30.186Z,100408.72
2023-04-15T20:33:36.853Z,100408.16
2023-04-15T20:34:41.944Z,100404.59
2023-04-15T20:35:48.390Z,100399.91
2023-04-15T20:36:53.712Z,100402.66
2023-04-15T20:38:00.149Z,100394.16
2023-04-15T20:39:05.480Z,100396.09
2023-04-15T20:40:13.212Z,100397.19
2023-04-15T20:41:19.641Z,100386.50
2023-04-15T20:42:28.556Z,100375.78
2023-04-15T20:43:33.662Z,100383.19
2023-04-15T20:44:40.593Z,100377.16
2023-04-15T20:45:47.254Z,100380.72
2023-04-15T20:46:54.051Z,100382.63
2023-04-15T20:48:00.580Z,100385.38
2023-04-15T20:49:05.982Z,100391.94
2023-04-15T20:50:13.668Z,100391.34
2023-04-15T20:51:18.786Z,100389.72
2023-04-15T20:52:25.192Z,100384.22
2023-04-15T20:53:30.340Z,100388.88
2023-04-15T20:54:36.796Z,100387.25
2023-04-15T20:55:41.972Z,100379.84
2023-04-15T20:56:48.368Z,100383.69
2023-04-15T20:57:53.876Z,100386.41
2023-04-15T20:59:00.364Z,100389.16
2023-04-15T21:00:06.446Z,100391.06
2023-04-15T21:01:12.938Z,100387.50
2023-04-15T21:02:19.942Z,100386.41
2023-04-15T21:03:26.621Z,100387.50
2023-04-15T21:04:31.869Z,100385.84
2023-04-15T21:05:38.292Z,100381.47
2023-04-15T21:06:43.407Z,100374.88
2023-04-15T21:07:49.905Z,100373.25
2023-04-15T21:08:56.341Z,100375.44
2023-04-15T21:10:02.782Z,100375.44
2023-04-15T21:11:07.909Z,100380.91
2023-04-15T21:12:14.657Z,100376.75
2023-04-15T21:13:19.856Z,100380.09
2023-04-15T21:14:26.310Z,100376.75
2023-04-15T21:15:32.750Z,100375.94
2023-04-15T21:16:38.302Z,100372.66
2023-04-15T21:17:46.571Z,100379.78
2023-04-15T21:18:51.975Z,100383.34
2023-04-15T21:19:58.549Z,100382.50
2023-04-15T21:21:05.677Z,100385.25
2023-04-15T21:22:11.007Z,100379.22
2023-04-15T21:23:17.508Z,100377.56
2023-04-15T21:24:22.749Z,100377.81
2023-04-15T21:25:29.338Z,100373.44
2023-04-15T21:26:34.537Z,100371.25
2023-04-15T21:27:41.104Z,100374.78
2023-04-15T21:28:46.368Z,100367.41
2023-04-15T21:29:54.856Z,100371.25
2023-04-15T21:31:00.670Z,100370.41
2023-04-15T21:32:07.286Z,100360.53
2023-04-15T21:33:15.664Z,100368.19
2023-04-15T21:34:21.025Z,100368.19
2023-04-15T21:35:27.558Z,100362.72
2023-04-15T21:36:33.084Z,100362.72
2023-04-15T21:37:40.021Z,100365.44
2023-04-15T21:38:45.345Z,100362.94
2023-04-15T21:39:51.940Z,100361.03
2023-04-15T21:40:57.158Z,100365.69
2023-04-15T21:42:04.243Z,100371.97
2023-04-15T21:43:09.812Z,100364.88
2023-04-15T21:44:16.445Z,100371.41
2023-04-15T21:45:21.831Z,100375.00
2023-04-15T21:46:36.131Z,100381.28
2023-04-15T21:48:00.817Z,100374.13
2023-04-15T21:49:09.840Z,100384.25
2023-04-15T21:50:17.283Z,100381.53
2023-04-15T21:51:22.572Z,100387.00
2023-04-15T21:52:29.132Z,100378.78
2023-04-15T21:53:34.384Z,100386.19
2023-04-15T21:54:40.876Z,100391.66
2023-04-15T21:55:46.111Z,100387.28
2023-04-15T21:56:52.921Z,100387.28
2023-04-15T21:57:58.215Z,100390.00
2023-04-15T21:59:05.135Z,100397.41
2023-04-15T22:00:12.309Z,100397.94
2023-04-15T22:01:21.059Z,100402.59
2023-04-15T22:02:26.515Z,100407.25
2023-04-15T22:03:34.983Z,100414.38
2023-04-15T22:04:42.153Z,100417.09
2023-04-15T22:05:49.696Z,100417.09
2023-04-15T22:06:57.101Z,100423.41
2023-04-15T22:08:06.073Z,100427.22
2023-04-15T22:09:13.453Z,100430.78
2023-04-15T22:10:21.001Z,100435.44
2023-04-15T22:11:28.647Z,100430.78
2023-04-15T22:12:35.399Z,100438.44
2023-04-15T22:13:40.668Z,100434.63
2023-04-15T22:14:47.642Z,100439.00
2023-04-15T22:15:53.013Z,100439.81
2023-04-15T22:17:00.676Z,100439.00
2023-04-15T22:18:06.091Z,100436.28
2023-04-15T22:19:12.798Z,100447.22
2023-04-15T22:20:19.804Z,100446.38
2023-04-15T22:21:26.454Z,100447.47
2023-04-15T22:22:42.570Z,100459.53
2023-04-15T22:23:49.770Z,100455.13
2023-04-15T22:24:56.285Z,100460.63
2023-04-15T22:26:02.742Z,100457.06
2023-04-15T22:27:12.320Z,100464.44
2023-04-15T22:28:17.568Z,100458.13
2023-04-15T22:29:24.080Z,100457.56
2023-04-15T22:30:29.466Z,100455.91
2023-04-15T22:31:39.222Z,100457.81
2023-04-15T22:32:44.572Z,100456.19
2023-04-15T22:33:51.088Z,100463.81
2023-04-15T22:34:56.307Z,100463.81
2023-04-15T22:36:04.545Z,100462.41
2023-04-15T22:37:09.767Z,100457.78
2023-04-15T22:38:16.289Z,100465.16
2023-04-15T22:39:21.997Z,100467.91
2023-04-15T22:40:28.538Z,100464.59
2023-04-15T22:41:33.809Z,100463.75
2023-04-15T22:42:40.345Z,100470.31
2023-04-15T22:43:45.611Z,100467.56
2023-04-15T22:44:52.708Z,100468.94
2023-04-15T22:45:58.127Z,100473.31
2023-04-15T22:47:04.682Z,100470.84
2023-04-15T22:48:10.024Z,100470.84
2023-04-15T22:49:16.615Z,100484.53
2023-04-15T22:50:22.096Z,100490.81
2023-04-15T22:51:31.069Z,100491.09
2023-04-15T22:52:36.318Z,100491.91
2023-04-15T22:53:42.884Z,100496.28
2023-04-15T22:54:50.878Z,100500.13
2023-04-15T22:55:57.517Z,100503.91
2023-04-15T22:57:02.758Z,100500.34
2023-04-15T22:58:09.344Z,100509.66
2023-04-15T22:59:15.919Z,100505.25
2023-04-15T23:00:21.259Z,100513.75
2023-04-15T23:01:28.013Z,100508.28
2023-04-15T23:02:33.433Z,100501.97
2023-04-15T23:03:55.925Z,100503.03
2023-04-15T23:05:13.098Z,100505.75
2023-04-15T23:06:18.953Z,100506.84
2023-04-15T23:07:27.265Z,100506.84
2023-04-15T23:08:32.668Z,100513.41
2023-04-15T23:09:39.248Z,100512.59
2023-04-15T23:10:46.011Z,100516.16
2023-04-15T23:11:52.574Z,100516.16
2023-04-15T23:12:57.871Z,100526.28
2023-04-15T23:14:04.502Z,100526.28
2023-04-15T23:15:10.751Z,100535.84
2023-04-15T23:16:17.464Z,100546.56
2023-04-15T23:17:22.756Z,100548.47
2023-04-15T23:18:29.404Z,100553.94
2023-04-15T23:19:34.633Z,100551.78
2023-04-15T23:20:41.228Z,100554.50
2023-04-15T23:21:46.481Z,100551.50
2023-04-15T23:22:54.770Z,100545.22
2023-04-15T23:24:00.040Z,100549.59
2023-04-15T23:25:06.651Z,100544.13
2023-04-15T23:26:11.948Z,100542.47
2023-04-15T23:27:19.075Z,100551.22
2023-04-15T23:28:24.362Z,100545.16
2023-04-15T23:29:30.974Z,100551.44
2023-04-15T23:30:36.291Z,100555.00
2023-04-15T23:31:43.177Z,100557.75
2023-04-15T23:32:48.502Z,100561.56
2023-04-15T23:33:55.198Z,100553.38
2023-04-15T23:35:00.438Z,100561.56
2023-04-15T23:36:07.166Z,100554.44
2023-04-15T23:37:12.412Z,100560.19
2023-04-15T23:38:20.750Z,100557.44
2023-04-15T23:39:26.044Z,100562.91
2023-04-15T23:40:32.649Z,100568.13
2023-04-15T23:41:38.435Z,100569.22
2023-04-15T23:42:44.993Z,100568.13
2023-04-15T23:43:50.206Z,100569.78
2023-04-15T23:44:56.717Z,100581.53
2023-04-15T23:46:01.931Z,100584.06
2023-04-15T23:47:08.568Z,100592.25
2023-04-15T23:48:13.779Z,100593.91
2023-04-15T23:49:20.600Z,100610.06
2023-04-15T23:50:25.961Z,100615.53
2023-04-15T23:51:32.540Z,100619.09
2023-04-15T23:52:37.805Z,100623.47
2023-04-15T23:53:46.105Z,100628.94
2023-04-15T23:54:51.329Z,100622.44
2023-04-15T23:55:57.861Z,100639.41
2023-04-15T23:57:03.083Z,100633.66
2023-04-15T23:58:09.600Z,100642.69
2023-04-15T23:59:14.825Z,100643.78
